createdAt,value
2022-09-29T00:01:13.723Z,3.70
2022-09-29T00:03:41.540Z,3.60
2022-09-29T00:06:15.616Z,3.20
2022-09-29T00:08:44.365Z,3.60
2022-09-29T00:11:17.945Z,3.20
2022-09-29T00:13:47.332Z,3.20
2022-09-29T00:16:15.268Z,3.30
2022-09-29T00:18:43.115Z,3.40
2022-09-29T00:21:21.020Z,2.60
2022-09-29T00:23:50.704Z,3.20
2022-09-29T00:26:21.959Z,4.70
2022-09-29T00:28:55.218Z,5.20
2022-09-29T00:31:30.182Z,4.70
2022-09-29T00:33:58.030Z,8.20
2022-09-29T00:36:30.054Z,10.40
2022-09-29T00:39:04.859Z,11.60
2022-09-29T00:41:39.377Z,7.60
2022-09-29T00:47:02.203Z,6.20
2022-09-29T00:49:51.019Z,5.10
2022-09-29T00:53:02.848Z,5.50
2022-09-29T00:55:39.436Z,4.50
2022-09-29T00:58:19.665Z,11.40
2022-09-29T01:00:47.555Z,9.10
2022-09-29T01:03:30.629Z,7.00
2022-09-29T01:06:12.988Z,6.30
2022-09-29T01:09:04.989Z,6.20
2022-09-29T01:11:33.177Z,5.10
2022-09-29T01:14:05.116Z,5.70
2022-09-29T01:16:34.898Z,4.70
2022-09-29T01:19:07.982Z,5.10
2022-09-29T01:22:08.497Z,4.20
2022-09-29T01:24:56.370Z,4.10
2022-09-29T01:27:49.360Z,5.90
2022-09-29T01:30:42.968Z,6.00
2022-09-29T01:33:53.988Z,5.40
2022-09-29T01:36:54.716Z,5.70
2022-09-29T01:39:42.157Z,5.90
2022-09-29T01:42:15.063Z,6.60
2022-09-29T01:44:47.942Z,5.70
2022-09-29T01:47:34.270Z,5.90
2022-09-29T01:50:16.432Z,6.80
2022-09-29T01:52:53.405Z,6.90
2022-09-29T01:55:25.585Z,7.00
2022-09-29T01:57:59.802Z,6.70
2022-09-29T02:00:41.823Z,7.10
2022-09-29T02:03:31.858Z,7.90
2022-09-29T02:06:03.968Z,7.90
2022-09-29T02:08:37.622Z,7.60
2022-09-29T02:11:12.286Z,8.50
2022-09-29T02:14:05.353Z,8.10
2022-09-29T02:16:41.442Z,8.00
2022-09-29T02:19:22.538Z,8.30
2022-09-29T02:21:59.870Z,8.30
2022-09-29T02:24:27.684Z,8.60
2022-09-29T02:26:55.930Z,8.70
2022-09-29T02:29:24.059Z,8.30
2022-09-29T02:31:51.900Z,8.20
2022-09-29T02:34:21.810Z,8.50
2022-09-29T02:37:02.740Z,7.80
2022-09-29T02:39:46.349Z,8.20
2022-09-29T02:42:33.774Z,9.80
2022-09-29T02:45:10.472Z,10.40
2022-09-29T02:48:10.095Z,9.20
2022-09-29T02:51:09.811Z,9.80
2022-09-29T02:54:09.461Z,10.00
2022-09-29T02:56:46.407Z,9.00
2022-09-29T02:59:31.792Z,8.50
2022-09-29T03:01:59.639Z,8.00
2022-09-29T03:04:28.753Z,7.20
2022-09-29T03:06:56.568Z,6.40
2022-09-29T03:09:24.397Z,6.20
2022-09-29T03:11:52.419Z,6.20
2022-09-29T03:14:20.280Z,4.00
2022-09-29T03:16:48.079Z,3.30
2022-09-29T03:19:15.846Z,2.60
2022-09-29T03:21:43.518Z,1.80
2022-09-29T03:24:11.169Z,2.10
2022-09-29T03:26:38.868Z,2.10
2022-09-29T03:29:07.370Z,1.90
2022-09-29T03:31:35.116Z,2.20
2022-09-29T03:34:02.981Z,1.90
2022-09-29T03:36:31.093Z,2.20
2022-09-29T03:38:59.071Z,3.20
2022-09-29T03:41:26.839Z,3.30
2022-09-29T03:43:54.504Z,4.00
2022-09-29T03:46:22.176Z,3.50
2022-09-29T03:48:49.864Z,3.90
2022-09-29T03:51:17.521Z,5.00
2022-09-29T03:53:45.185Z,5.60
2022-09-29T03:56:13.060Z,6.80
2022-09-29T03:58:40.764Z,7.30
2022-09-29T04:01:08.670Z,6.40
2022-09-29T04:03:36.422Z,7.40
2022-09-29T04:06:04.265Z,8.00
2022-09-29T04:08:32.129Z,8.10
2022-09-29T04:10:59.750Z,8.40
2022-09-29T04:13:27.448Z,7.90
2022-09-29T04:16:06.815Z,8.30
2022-09-29T04:18:36.252Z,25.30
2022-09-29T04:21:08.378Z,18.90
2022-09-29T04:23:36.525Z,12.70
2022-09-29T04:26:05.565Z,10.40
2022-09-29T04:28:36.173Z,7.90
2022-09-29T04:31:05.135Z,9.00
2022-09-29T04:33:33.137Z,9.00
2022-09-29T04:36:01.252Z,9.40
2022-09-29T04:38:28.950Z,7.60
2022-09-29T04:40:57.421Z,10.00
2022-09-29T04:43:25.193Z,10.70
2022-09-29T04:45:53.002Z,9.20
2022-09-29T04:48:20.783Z,8.50
2022-09-29T04:50:51.204Z,7.60
2022-09-29T04:53:18.866Z,8.00
2022-09-29T04:55:46.601Z,8.00
2022-09-29T04:58:15.433Z,9.40
2022-09-29T05:00:43.239Z,10.40
2022-09-29T05:03:11.207Z,8.20
2022-09-29T05:05:38.846Z,10.40
2022-09-29T05:08:06.992Z,8.90
2022-09-29T05:10:35.053Z,11.10
2022-09-29T05:13:02.751Z,15.30
2022-09-29T05:15:30.491Z,14.10
2022-09-29T05:18:03.494Z,9.70
2022-09-29T05:20:39.818Z,16.80
2022-09-29T05:23:12.748Z,13.40
2022-09-29T05:25:40.526Z,10.30
2022-09-29T05:28:11.045Z,14.40
2022-09-29T05:30:41.134Z,13.90
2022-09-29T05:33:08.907Z,12.10
2022-09-29T05:35:36.717Z,18.60
2022-09-29T05:38:04.426Z,13.80
2022-09-29T05:40:32.227Z,9.60
2022-09-29T05:43:00.573Z,12.80
2022-09-29T05:45:29.057Z,23.00
2022-09-29T05:47:57.701Z,30.20
2022-09-29T05:50:25.528Z,25.80
2022-09-29T05:52:54.737Z,24.30
2022-09-29T05:55:24.258Z,13.00
2022-09-29T05:57:52.007Z,17.60
2022-09-29T06:00:21.023Z,13.70
2022-09-29T06:02:49.428Z,13.40
2022-09-29T06:05:17.416Z,20.50
2022-09-29T06:07:50.427Z,12.40
2022-09-29T06:10:20.467Z,15.50
2022-09-29T06:12:48.307Z,12.90
2022-09-29T06:15:16.291Z,11.00
2022-09-29T06:17:44.016Z,13.10
2022-09-29T06:20:12.348Z,11.00
2022-09-29T06:22:39.984Z,18.40
2022-09-29T06:25:08.391Z,12.00
2022-09-29T06:27:36.206Z,11.80
2022-09-29T06:30:04.408Z,16.20
2022-09-29T06:32:34.016Z,20.30
2022-09-29T06:35:17.772Z,18.20
2022-09-29T06:37:46.583Z,12.20
2022-09-29T06:40:14.544Z,12.00
2022-09-29T06:42:42.220Z,11.80
2022-09-29T06:45:13.494Z,13.10
2022-09-29T06:47:41.226Z,15.40
2022-09-29T06:50:17.766Z,13.70
2022-09-29T06:53:02.112Z,11.70
2022-09-29T06:55:32.135Z,14.00
2022-09-29T06:58:04.028Z,13.80
2022-09-29T07:00:39.028Z,13.20
2022-09-29T07:03:09.851Z,12.00
2022-09-29T07:05:37.807Z,11.40
2022-09-29T07:08:06.030Z,13.60
2022-09-29T07:10:35.092Z,15.00
2022-09-29T07:13:02.725Z,15.30
2022-09-29T07:15:33.180Z,18.80
2022-09-29T07:18:01.906Z,17.70
2022-09-29T07:20:31.674Z,19.60
2022-09-29T07:23:00.166Z,11.80
2022-09-29T07:25:50.522Z,12.00
2022-09-29T07:28:15.592Z,15.10
2022-09-29T07:30:43.517Z,16.30
2022-09-29T07:33:11.260Z,13.30
2022-09-29T07:35:40.355Z,15.80
2022-09-29T07:38:08.301Z,12.50
2022-09-29T07:40:36.042Z,10.90
2022-09-29T07:43:04.495Z,12.10
2022-09-29T07:45:32.735Z,13.00
2022-09-29T07:48:02.337Z,13.40
2022-09-29T07:50:30.081Z,13.00
2022-09-29T07:52:58.181Z,13.20
2022-09-29T07:55:27.779Z,12.70
2022-09-29T07:57:56.901Z,14.40
2022-09-29T08:00:24.586Z,13.80
2022-09-29T08:02:52.217Z,14.40
2022-09-29T08:05:19.845Z,13.90
2022-09-29T08:07:52.761Z,13.20
2022-09-29T08:10:21.383Z,12.90
2022-09-29T08:12:49.067Z,12.80
2022-09-29T08:15:17.453Z,12.60
2022-09-29T08:17:45.057Z,12.00
2022-09-29T08:20:13.124Z,18.40
2022-09-29T08:22:41.863Z,14.20
2022-09-29T08:25:09.619Z,12.40
2022-09-29T08:27:50.071Z,14.80
2022-09-29T08:30:22.370Z,14.20
2022-09-29T08:32:56.781Z,15.00
2022-09-29T08:35:25.359Z,15.10
2022-09-29T08:37:55.203Z,14.60
2022-09-29T08:40:23.001Z,14.70
2022-09-29T08:43:31.920Z,12.40
2022-09-29T08:46:33.412Z,14.00
2022-09-29T08:49:31.076Z,15.00
2022-09-29T08:52:16.904Z,17.00
2022-09-29T08:54:49.701Z,13.80
2022-09-29T08:57:20.204Z,14.80
2022-09-29T08:59:56.101Z,15.60
2022-09-29T09:02:56.889Z,15.00
2022-09-29T09:05:35.408Z,16.20
2022-09-29T09:08:35.106Z,17.60
2022-09-29T09:11:22.016Z,17.00
2022-09-29T09:14:12.382Z,16.20
2022-09-29T09:16:55.194Z,15.60
2022-09-29T09:19:38.765Z,15.40
2022-09-29T09:22:23.904Z,13.50
2022-09-29T09:25:23.468Z,14.50
2022-09-29T09:28:04.351Z,14.40
2022-09-29T09:30:43.535Z,17.00
2022-09-29T09:33:30.993Z,17.40
2022-09-29T09:36:29.667Z,14.40
2022-09-29T09:39:06.468Z,15.10
2022-09-29T09:41:38.417Z,12.30
2022-09-29T09:44:16.217Z,18.80
2022-09-29T09:46:54.811Z,15.00
2022-09-29T09:49:31.487Z,14.60
2022-09-29T09:52:20.335Z,16.00
2022-09-29T09:54:53.534Z,14.40
2022-09-29T09:57:30.468Z,15.90
2022-09-29T10:00:19.960Z,13.30
2022-09-29T10:02:53.074Z,12.70
2022-09-29T10:05:37.713Z,12.40
2022-09-29T10:08:10.696Z,11.50
2022-09-29T10:10:56.347Z,11.20
2022-09-29T10:13:28.587Z,12.40
2022-09-29T10:16:17.358Z,12.20
2022-09-29T10:18:54.180Z,11.60
2022-09-29T10:21:36.123Z,11.80
2022-09-29T10:24:07.619Z,12.60
2022-09-29T10:26:53.466Z,11.30
2022-09-29T10:29:39.129Z,12.90
2022-09-29T10:32:09.322Z,10.00
2022-09-29T10:34:43.753Z,10.20
2022-09-29T10:37:38.169Z,12.60
2022-09-29T10:40:08.949Z,12.80
2022-09-29T10:42:39.021Z,10.00
2022-09-29T10:45:25.501Z,8.90
2022-09-29T10:48:01.472Z,9.10
2022-09-29T10:50:37.537Z,9.10
2022-09-29T10:53:25.247Z,9.50
2022-09-29T10:55:57.118Z,8.40
2022-09-29T10:58:45.567Z,14.40
2022-09-29T11:01:27.558Z,14.70
2022-09-29T11:04:14.162Z,10.00
2022-09-29T11:06:44.245Z,9.20
2022-09-29T11:09:18.970Z,9.60
2022-09-29T11:11:46.769Z,7.80
2022-09-29T11:14:34.237Z,9.90
2022-09-29T11:17:20.354Z,10.40
2022-09-29T11:19:49.593Z,8.10
2022-09-29T11:22:50.645Z,9.10
2022-09-29T11:25:26.651Z,9.30
2022-09-29T11:28:26.303Z,9.90
2022-09-29T11:31:29.048Z,10.40
2022-09-29T11:34:18.770Z,12.00
2022-09-29T11:37:18.423Z,11.60
2022-09-29T11:39:54.949Z,10.20
2022-09-29T11:42:56.988Z,9.20
2022-09-29T11:45:41.998Z,9.50
2022-09-29T11:54:28.397Z,9.70
2022-09-29T11:57:11.393Z,9.90
2022-09-29T12:00:01.059Z,10.10
2022-09-29T12:02:48.028Z,10.10
2022-09-29T12:05:43.518Z,11.50
2022-09-29T12:08:33.213Z,11.00
2022-09-29T12:11:50.994Z,11.10
2022-09-29T12:17:14.682Z,10.80
2022-09-29T12:19:45.034Z,10.50
2022-09-29T12:26:01.871Z,10.10
2022-09-29T12:28:47.473Z,8.80
2022-09-29T12:31:55.782Z,7.80
2022-09-29T12:35:12.835Z,8.90
2022-09-29T12:41:02.494Z,9.40
2022-09-29T12:46:49.455Z,7.00
2022-09-29T12:49:23.743Z,7.90
2022-09-29T12:52:10.575Z,8.20
2022-09-29T12:54:56.598Z,8.40
2022-09-29T12:57:35.166Z,7.60
2022-09-29T13:00:35.138Z,9.00
2022-09-29T13:03:36.996Z,9.70
2022-09-29T13:06:37.687Z,7.90
2022-09-29T13:09:24.554Z,8.00
2022-09-29T13:12:21.586Z,8.60
2022-09-29T13:14:58.208Z,8.10
2022-09-29T13:20:31.380Z,17.50
2022-09-29T13:23:26.630Z,11.70
2022-09-29T13:26:13.495Z,9.90
2022-09-29T13:28:46.814Z,9.10
2022-09-29T13:31:28.902Z,9.20
2022-09-29T13:34:02.097Z,13.10
2022-09-29T13:36:37.580Z,14.00
2022-09-29T13:39:08.324Z,10.70
2022-09-29T13:41:40.084Z,9.80
2022-09-29T13:44:25.947Z,12.80
2022-09-29T13:46:56.235Z,11.50
2022-09-29T13:49:29.113Z,13.00
2022-09-29T13:52:12.816Z,16.80
2022-09-29T13:54:42.711Z,27.60
2022-09-29T13:57:12.349Z,21.60
2022-09-29T13:59:42.922Z,14.80
2022-09-29T14:02:44.939Z,11.90
2022-09-29T14:05:29.683Z,30.70
2022-09-29T14:07:57.545Z,9.80
2022-09-29T14:10:48.308Z,12.80
2022-09-29T14:13:15.897Z,28.90
2022-09-29T14:15:51.267Z,12.10
2022-09-29T14:18:50.857Z,11.30
2022-09-29T14:21:50.833Z,16.60
2022-09-29T14:24:37.410Z,13.00
2022-09-29T14:27:27.823Z,9.80
2022-09-29T14:30:12.143Z,10.00
2022-09-29T14:32:52.279Z,9.00
2022-09-29T14:35:38.685Z,8.40
2022-09-29T14:38:18.299Z,9.10
2022-09-29T14:41:04.111Z,7.50
2022-09-29T14:43:54.241Z,11.20
2022-09-29T14:47:00.060Z,11.20
2022-09-29T14:50:15.695Z,9.80
2022-09-29T14:52:55.369Z,8.50
2022-09-29T14:55:43.131Z,25.00
2022-09-29T14:58:54.189Z,17.40
2022-09-29T15:01:30.308Z,14.90
2022-09-29T15:04:06.397Z,16.80
2022-09-29T15:06:34.224Z,21.30
2022-09-29T15:09:22.627Z,15.20
2022-09-29T15:12:04.366Z,27.70
2022-09-29T15:14:39.447Z,12.20
2022-09-29T15:17:29.271Z,21.60
2022-09-29T15:20:16.643Z,18.50
2022-09-29T15:23:03.281Z,24.70
2022-09-29T15:25:32.554Z,24.40
2022-09-29T15:30:50.673Z,22.70
2022-09-29T15:33:24.547Z,41.80
2022-09-29T15:36:25.223Z,52.70
2022-09-29T15:38:58.544Z,31.90
2022-09-29T15:41:29.262Z,33.00
2022-09-29T15:47:00.816Z,30.40
2022-09-29T15:49:29.929Z,35.10
2022-09-29T15:54:59.324Z,31.00
2022-09-29T15:57:49.935Z,26.30
2022-09-29T16:00:23.868Z,18.40
2022-09-29T16:03:02.242Z,18.10
2022-09-29T16:05:33.068Z,15.10
2022-09-29T16:08:04.405Z,15.40
2022-09-29T16:10:34.961Z,23.60
2022-09-29T16:13:08.525Z,20.50
2022-09-29T16:15:42.807Z,17.60
2022-09-29T16:18:37.224Z,17.50
2022-09-29T16:21:10.631Z,11.80
2022-09-29T16:23:44.215Z,12.50
2022-09-29T16:26:43.802Z,10.70
2022-09-29T16:29:12.617Z,13.40
2022-09-29T16:31:43.171Z,12.20
2022-09-29T16:34:31.339Z,13.30
2022-09-29T16:37:18.225Z,25.40
2022-09-29T16:39:49.639Z,33.50
2022-09-29T16:42:25.527Z,36.90
2022-09-29T16:44:55.742Z,44.60
2022-09-29T16:47:27.547Z,72.60
2022-09-29T16:49:57.346Z,80.60
2022-09-29T16:52:46.039Z,75.70
2022-09-29T16:55:37.426Z,62.20
2022-09-29T16:58:13.109Z,44.10
2022-09-29T17:00:41.468Z,41.20
2022-09-29T17:03:09.644Z,47.40
2022-09-29T17:05:43.480Z,93.20
2022-09-29T17:08:31.232Z,65.20
2022-09-29T17:10:59.015Z,49.00
2022-09-29T17:13:32.479Z,50.70
2022-09-29T17:16:00.998Z,28.80
2022-09-29T17:18:29.216Z,21.70
2022-09-29T17:20:56.909Z,47.00
2022-09-29T17:23:24.797Z,34.90
2022-09-29T17:28:41.925Z,30.80
2022-09-29T17:31:12.874Z,37.00
2022-09-29T17:33:41.830Z,23.30
2022-09-29T17:36:14.126Z,19.20
2022-09-29T17:38:42.227Z,18.40
2022-09-29T17:41:16.153Z,9.70
2022-09-29T17:43:47.500Z,11.40
2022-09-29T17:46:16.537Z,23.30
2022-09-29T17:48:44.610Z,23.10
2022-09-29T17:51:14.396Z,22.00
2022-09-29T17:53:42.209Z,22.70
2022-09-29T17:56:26.458Z,15.40
2022-09-29T17:58:55.213Z,18.30
2022-09-29T18:01:24.238Z,15.60
2022-09-29T18:03:52.488Z,22.20
2022-09-29T18:06:22.584Z,17.40
2022-09-29T18:08:54.090Z,50.70
2022-09-29T18:11:24.498Z,37.80
2022-09-29T18:13:53.088Z,30.60
2022-09-29T18:16:23.042Z,28.80
2022-09-29T18:18:55.474Z,18.40
2022-09-29T18:21:26.276Z,17.20
2022-09-29T18:23:54.037Z,33.20
2022-09-29T18:26:21.881Z,26.40
2022-09-29T18:28:51.448Z,65.00
2022-09-29T18:31:27.884Z,72.70
2022-09-29T18:33:57.781Z,158.50
2022-09-29T18:36:25.792Z,66.10
2022-09-29T18:38:53.767Z,20.60
2022-09-29T18:41:23.203Z,15.40
2022-09-29T18:43:51.087Z,35.10
2022-09-29T18:46:19.082Z,36.10
2022-09-29T18:48:46.956Z,29.50
2022-09-29T18:51:17.596Z,26.90
2022-09-29T18:53:47.570Z,22.60
2022-09-29T18:56:17.510Z,16.00
2022-09-29T18:58:45.345Z,36.00
2022-09-29T19:01:25.162Z,46.00
2022-09-29T19:03:53.678Z,25.70
2022-09-29T19:06:21.409Z,26.50
2022-09-29T19:08:52.035Z,16.80
2022-09-29T19:11:25.247Z,16.70
2022-09-29T19:13:56.564Z,11.90
2022-09-29T19:16:25.794Z,13.40
2022-09-29T19:18:54.750Z,22.60
2022-09-29T19:21:22.414Z,22.40
2022-09-29T19:23:50.958Z,18.20
2022-09-29T19:26:22.385Z,15.30
2022-09-29T19:28:50.426Z,17.40
2022-09-29T19:31:20.265Z,21.10
2022-09-29T19:33:50.551Z,22.00
2022-09-29T19:36:21.449Z,21.10
2022-09-29T19:38:49.986Z,23.10
2022-09-29T19:41:21.482Z,21.10
2022-09-29T19:43:50.235Z,21.50
2022-09-29T19:46:19.616Z,17.80
2022-09-29T19:48:47.529Z,14.80
2022-09-29T19:51:32.339Z,14.60
2022-09-29T19:54:11.459Z,13.50
2022-09-29T19:56:44.292Z,16.10
2022-09-29T19:59:13.972Z,14.00
2022-09-29T20:01:45.435Z,14.90
2022-09-29T20:04:14.459Z,16.20
2022-09-29T20:06:43.468Z,18.70
2022-09-29T20:09:12.186Z,21.70
2022-09-29T20:11:40.923Z,26.70
2022-09-29T20:14:11.480Z,32.80
2022-09-29T20:16:41.480Z,21.90
2022-09-29T20:19:13.976Z,15.20
2022-09-29T20:21:48.023Z,14.60
2022-09-29T20:24:18.912Z,11.60
2022-09-29T20:26:48.648Z,12.10
2022-09-29T20:29:19.012Z,14.20
2022-09-29T20:31:48.098Z,23.80
2022-09-29T20:34:18.703Z,28.00
2022-09-29T20:36:50.881Z,25.40
2022-09-29T20:39:21.749Z,20.20
2022-09-29T20:41:50.593Z,16.40
2022-09-29T20:44:23.563Z,15.10
2022-09-29T20:46:52.513Z,12.70
2022-09-29T20:49:20.368Z,15.40
2022-09-29T20:51:48.639Z,15.00
2022-09-29T20:54:16.319Z,17.00
2022-09-29T20:56:44.405Z,16.80
2022-09-29T20:59:20.441Z,16.30
2022-09-29T21:01:48.937Z,15.40
2022-09-29T21:04:20.042Z,21.10
2022-09-29T21:06:50.361Z,26.50
2022-09-29T21:09:22.098Z,14.90
2022-09-29T21:11:52.406Z,15.50
2022-09-29T21:14:27.541Z,15.30
2022-09-29T21:16:55.655Z,18.00
2022-09-29T21:19:26.267Z,17.40
2022-09-29T21:21:55.516Z,19.20
2022-09-29T21:24:24.061Z,20.10
2022-09-29T21:26:52.121Z,13.80
2022-09-29T21:29:20.227Z,14.00
2022-09-29T21:31:48.411Z,14.90
2022-09-29T21:34:16.585Z,14.40
2022-09-29T21:36:44.403Z,22.70
2022-09-29T21:39:14.314Z,21.70
2022-09-29T21:41:43.929Z,21.10
2022-09-29T21:44:15.432Z,22.50
2022-09-29T21:46:44.211Z,18.90
2022-09-29T21:49:16.074Z,17.90
2022-09-29T21:51:49.262Z,14.00
2022-09-29T21:54:22.766Z,15.40
2022-09-29T21:56:51.644Z,15.00
2022-09-29T21:59:22.407Z,14.00
2022-09-29T22:01:52.075Z,16.10
2022-09-29T22:04:20.812Z,14.90
2022-09-29T22:06:49.022Z,17.50
2022-09-29T22:09:19.713Z,13.80
2022-09-29T22:11:49.877Z,14.50
2022-09-29T22:14:18.590Z,14.60
2022-09-29T22:16:46.394Z,16.30
2022-09-29T22:19:29.744Z,18.60
2022-09-29T22:21:57.640Z,16.60
2022-09-29T22:24:27.670Z,13.90
2022-09-29T22:26:55.538Z,14.80
2022-09-29T22:29:23.615Z,15.50
2022-09-29T22:31:51.698Z,15.50
2022-09-29T22:34:19.478Z,18.10
2022-09-29T22:36:47.142Z,15.90
2022-09-29T22:39:14.901Z,15.60
2022-09-29T22:41:43.464Z,15.50
2022-09-29T22:44:12.277Z,20.10
2022-09-29T22:46:40.186Z,19.10
2022-09-29T22:49:08.229Z,16.50
2022-09-29T22:51:36.032Z,14.10
2022-09-29T22:54:03.868Z,14.50
2022-09-29T22:56:31.705Z,14.20
2022-09-29T22:59:01.942Z,15.10
2022-09-29T23:01:30.522Z,15.20
2022-09-29T23:03:58.954Z,14.30
2022-09-29T23:06:26.744Z,16.50
2022-09-29T23:08:55.540Z,14.60
2022-09-29T23:11:23.587Z,14.90
2022-09-29T23:13:52.813Z,15.80
2022-09-29T23:16:20.831Z,14.80
2022-09-29T23:18:53.313Z,14.10
2022-09-29T23:21:22.277Z,16.10
2022-09-29T23:24:18.228Z,15.30
2022-09-29T23:26:47.189Z,15.70
2022-09-29T23:29:15.099Z,14.60
2022-09-29T23:31:48.743Z,13.90
2022-09-29T23:34:17.556Z,13.80
2022-09-29T23:36:45.218Z,13.30
2022-09-29T23:39:15.707Z,13.90
2022-09-29T23:41:49.093Z,14.20
2022-09-29T23:44:22.537Z,15.50
2022-09-29T23:46:50.387Z,16.60
2022-09-29T23:49:22.285Z,16.60
2022-09-29T23:51:53.140Z,16.70
2022-09-29T23:54:23.212Z,18.80
2022-09-29T23:56:52.475Z,16.30
2022-09-29T23:59:20.665Z,15.50
